sensor_id;sensor_type;location;lat;lon;timestamp;pressure;altitude;pressure_sealevel;temperature;humidity
31538;BME280;18147;51.952;6.146;2023-07-31T00:02:09;100960.47;;;16.29;100.00
31538;BME280;18147;51.952;6.146;2023-07-31T00:04:34;100964.47;;;16.35;100.00
31538;BME280;18147;51.952;6.146;2023-07-31T00:07:00;100958.31;;;16.44;100.00
31538;BME280;18147;51.952;6.146;2023-07-31T00:09:26;100957.06;;;16.48;100.00
31538;BME280;18147;51.952;6.146;2023-07-31T00:11:51;100946.56;;;16.45;100.00
31538;BME280;18147;51.952;6.146;2023-07-31T00:14:17;100952.84;;;16.55;100.00
31538;BME280;18147;51.952;6.146;2023-07-31T00:16:43;100945.75;;;16.54;100.00
31538;BME280;18147;51.952;6.146;2023-07-31T00:19:10;100950.31;;;16.54;100.00
31538;BME280;18147;51.952;6.146;2023-07-31T00:21:38;100940.63;;;16.51;100.00
31538;BME280;18147;51.952;6.146;2023-07-31T00:24:03;100942.53;;;16.61;100.00
31538;BME280;18147;51.952;6.146;2023-07-31T00:26:29;100927.50;;;16.58;100.00
31538;BME280;18147;51.952;6.146;2023-07-31T00:28:55;100930.91;;;16.60;100.00
31538;BME280;18147;51.952;6.146;2023-07-31T00:31:21;100927.97;;;16.63;100.00
31538;BME280;18147;51.952;6.146;2023-07-31T00:33:47;100919.44;;;16.58;100.00
31538;BME280;18147;51.952;6.146;2023-07-31T00:36:13;100923.03;;;16.68;100.00
31538;BME280;18147;51.952;6.146;2023-07-31T00:38:38;100922.03;;;16.69;100.00
31538;BME280;18147;51.952;6.146;2023-07-31T00:41:08;100919.75;;;16.65;100.00
31538;BME280;18147;51.952;6.146;2023-07-31T00:43:34;100921.47;;;16.45;100.00
31538;BME280;18147;51.952;6.146;2023-07-31T00:46:00;100918.19;;;16.41;100.00
31538;BME280;18147;51.952;6.146;2023-07-31T00:48:26;100921.75;;;16.42;100.00
31538;BME280;18147;51.952;6.146;2023-07-31T00:50:52;100919.06;;;16.42;100.00
31538;BME280;18147;51.952;6.146;2023-07-31T00:53:18;100922.41;;;16.34;100.00
31538;BME280;18147;51.952;6.146;2023-07-31T00:55:44;100924.72;;;16.39;100.00
31538;BME280;18147;51.952;6.146;2023-07-31T00:58:13;100919.97;;;16.31;100.00
31538;BME280;18147;51.952;6.146;2023-07-31T01:00:38;100918.94;;;16.43;100.00
31538;BME280;18147;51.952;6.146;2023-07-31T01:03:09;100923.06;;;16.47;100.00
31538;BME280;18147;51.952;6.146;2023-07-31T01:06:07;100922.13;;;16.58;100.00
31538;BME280;18147;51.952;6.146;2023-07-31T01:11:29;100921.28;;;16.57;100.00
31538;BME280;18147;51.952;6.146;2023-07-31T01:13:55;100918.69;;;16.56;100.00
31538;BME280;18147;51.952;6.146;2023-07-31T01:16:21;100919.28;;;16.60;100.00
31538;BME280;18147;51.952;6.146;2023-07-31T01:18:46;100930.66;;;16.63;100.00
31538;BME280;18147;51.952;6.146;2023-07-31T01:27:21;100907.06;;;16.76;100.00
31538;BME280;18147;51.952;6.146;2023-07-31T01:29:49;100914.66;;;16.92;100.00
31538;BME280;18147;51.952;6.146;2023-07-31T01:32:19;100910.94;;;16.83;100.00
31538;BME280;18147;51.952;6.146;2023-07-31T01:34:45;100908.25;;;16.83;100.00
31538;BME280;18147;51.952;6.146;2023-07-31T01:37:15;100907.09;;;16.86;100.00
31538;BME280;18147;51.952;6.146;2023-07-31T01:39:41;100905.81;;;16.80;100.00
31538;BME280;18147;51.952;6.146;2023-07-31T01:42:07;100897.72;;;16.80;100.00
31538;BME280;18147;51.952;6.146;2023-07-31T01:44:33;100894.47;;;16.87;100.00
31538;BME280;18147;51.952;6.146;2023-07-31T01:46:58;100903.84;;;16.82;100.00
31538;BME280;18147;51.952;6.146;2023-07-31T01:49:26;100891.50;;;16.80;100.00
31538;BME280;18147;51.952;6.146;2023-07-31T01:51:51;100890.50;;;16.81;100.00
31538;BME280;18147;51.952;6.146;2023-07-31T01:54:17;100893.34;;;16.79;100.00
31538;BME280;18147;51.952;6.146;2023-07-31T01:56:45;100885.84;;;16.83;100.00
31538;BME280;18147;51.952;6.146;2023-07-31T01:59:15;100886.66;;;16.74;100.00
31538;BME280;18147;51.952;6.146;2023-07-31T02:01:43;100890.22;;;16.84;100.00
31538;BME280;18147;51.952;6.146;2023-07-31T02:04:09;100881.47;;;16.82;100.00
31538;BME280;18147;51.952;6.146;2023-07-31T02:06:44;100869.38;;;16.86;100.00
31538;BME280;18147;51.952;6.146;2023-07-31T02:09:12;100866.84;;;16.85;100.00
31538;BME280;18147;51.952;6.146;2023-07-31T02:11:38;100867.28;;;16.90;100.00
31538;BME280;18147;51.952;6.146;2023-07-31T02:14:03;100873.69;;;16.98;100.00
31538;BME280;18147;51.952;6.146;2023-07-31T02:16:30;100848.88;;;16.95;100.00
31538;BME280;18147;51.952;6.146;2023-07-31T02:18:55;100851.56;;;16.95;100.00
31538;BME280;18147;51.952;6.146;2023-07-31T02:21:21;100860.81;;;17.02;100.00
31538;BME280;18147;51.952;6.146;2023-07-31T02:23:47;100856.38;;;17.01;100.00
31538;BME280;18147;51.952;6.146;2023-07-31T02:26:13;100839.09;;;17.03;100.00
31538;BME280;18147;51.952;6.146;2023-07-31T02:28:38;100841.50;;;17.06;100.00
31538;BME280;18147;51.952;6.146;2023-07-31T02:31:13;100828.75;;;16.99;100.00
31538;BME280;18147;51.952;6.146;2023-07-31T02:33:48;100841.38;;;16.98;100.00
31538;BME280;18147;51.952;6.146;2023-07-31T02:36:17;100847.88;;;16.96;100.00
31538;BME280;18147;51.952;6.146;2023-07-31T02:38:46;100848.44;;;16.99;100.00
31538;BME280;18147;51.952;6.146;2023-07-31T02:41:13;100846.31;;;16.93;100.00
31538;BME280;18147;51.952;6.146;2023-07-31T02:43:38;100834.41;;;16.96;100.00
31538;BME280;18147;51.952;6.146;2023-07-31T02:46:14;100826.47;;;17.04;100.00
31538;BME280;18147;51.952;6.146;2023-07-31T02:48:43;100822.66;;;17.06;100.00
31538;BME280;18147;51.952;6.146;2023-07-31T02:51:09;100829.19;;;17.04;100.00
31538;BME280;18147;51.952;6.146;2023-07-31T02:53:34;100817.56;;;17.03;100.00
31538;BME280;18147;51.952;6.146;2023-07-31T02:56:00;100815.69;;;16.94;100.00
31538;BME280;18147;51.952;6.146;2023-07-31T02:58:25;100815.69;;;16.94;100.00
31538;BME280;18147;51.952;6.146;2023-07-31T03:00:51;100822.34;;;17.00;100.00
31538;BME280;18147;51.952;6.146;2023-07-31T03:03:16;100820.25;;;17.03;100.00
31538;BME280;18147;51.952;6.146;2023-07-31T03:05:43;100832.03;;;17.02;100.00
31538;BME280;18147;51.952;6.146;2023-07-31T03:08:17;100832.72;;;17.04;100.00
31538;BME280;18147;51.952;6.146;2023-07-31T03:10:43;100823.97;;;17.12;100.00
31538;BME280;18147;51.952;6.146;2023-07-31T03:13:10;100822.09;;;17.13;100.00
31538;BME280;18147;51.952;6.146;2023-07-31T03:15:36;100812.28;;;17.12;100.00
31538;BME280;18147;51.952;6.146;2023-07-31T03:18:02;100827.59;;;17.01;100.00
31538;BME280;18147;51.952;6.146;2023-07-31T03:20:28;100814.44;;;17.08;100.00
31538;BME280;18147;51.952;6.146;2023-07-31T03:22:53;100811.16;;;17.04;100.00
31538;BME280;18147;51.952;6.146;2023-07-31T03:25:19;100829.34;;;17.02;100.00
31538;BME280;18147;51.952;6.146;2023-07-31T03:27:44;100814.56;;;17.06;100.00
31538;BME280;18147;51.952;6.146;2023-07-31T03:30:10;100817.00;;;17.09;100.00
31538;BME280;18147;51.952;6.146;2023-07-31T03:32:38;100825.78;;;16.92;100.00
31538;BME280;18147;51.952;6.146;2023-07-31T03:35:04;100818.66;;;17.01;100.00
31538;BME280;18147;51.952;6.146;2023-07-31T03:37:30;100823.50;;;16.97;100.00
31538;BME280;18147;51.952;6.146;2023-07-31T03:39:56;100813.69;;;16.96;100.00
31538;BME280;18147;51.952;6.146;2023-07-31T03:42:22;100811.28;;;16.83;100.00
31538;BME280;18147;51.952;6.146;2023-07-31T03:44:50;100805.19;;;16.91;100.00
31538;BME280;18147;51.952;6.146;2023-07-31T03:47:16;100801.09;;;16.97;100.00
31538;BME280;18147;51.952;6.146;2023-07-31T03:49:45;100808.19;;;16.98;100.00
31538;BME280;18147;51.952;6.146;2023-07-31T03:52:13;100796.84;;;16.94;100.00
31538;BME280;18147;51.952;6.146;2023-07-31T03:54:42;100798.50;;;16.86;100.00
31538;BME280;18147;51.952;6.146;2023-07-31T03:57:17;100794.69;;;16.88;100.00
31538;BME280;18147;51.952;6.146;2023-07-31T03:59:46;100787.75;;;16.86;100.00
31538;BME280;18147;51.952;6.146;2023-07-31T04:02:12;100792.84;;;16.89;100.00
31538;BME280;18147;51.952;6.146;2023-07-31T04:04:45;100797.81;;;16.83;100.00
31538;BME280;18147;51.952;6.146;2023-07-31T04:07:14;100789.16;;;16.90;100.00
31538;BME280;18147;51.952;6.146;2023-07-31T04:09:46;100802.03;;;16.76;100.00
31538;BME280;18147;51.952;6.146;2023-07-31T04:12:12;100787.75;;;16.95;100.00
31538;BME280;18147;51.952;6.146;2023-07-31T04:14:38;100788.47;;;16.88;100.00
31538;BME280;18147;51.952;6.146;2023-07-31T04:17:04;100788.47;;;16.88;100.00
31538;BME280;18147;51.952;6.146;2023-07-31T04:19:30;100786.75;;;16.87;100.00
31538;BME280;18147;51.952;6.146;2023-07-31T04:21:55;100785.78;;;16.88;100.00
31538;BME280;18147;51.952;6.146;2023-07-31T04:24:22;100780.47;;;16.76;100.00
31538;BME280;18147;51.952;6.146;2023-07-31T04:26:53;100782.25;;;16.97;100.00
31538;BME280;18147;51.952;6.146;2023-07-31T04:29:19;100775.28;;;16.94;100.00
31538;BME280;18147;51.952;6.146;2023-07-31T04:31:45;100768.47;;;16.90;100.00
31538;BME280;18147;51.952;6.146;2023-07-31T04:34:12;100769.91;;;16.94;100.00
31538;BME280;18147;51.952;6.146;2023-07-31T04:36:38;100769.47;;;16.99;100.00
31538;BME280;18147;51.952;6.146;2023-07-31T04:39:09;100774.56;;;17.12;100.00
31538;BME280;18147;51.952;6.146;2023-07-31T04:41:34;100761.41;;;16.99;100.00
31538;BME280;18147;51.952;6.146;2023-07-31T04:44:01;100762.09;;;17.11;100.00
31538;BME280;18147;51.952;6.146;2023-07-31T04:46:26;100758.41;;;17.12;100.00
31538;BME280;18147;51.952;6.146;2023-07-31T04:48:52;100759.56;;;16.99;100.00
31538;BME280;18147;51.952;6.146;2023-07-31T04:51:17;100748.34;;;17.14;100.00
31538;BME280;18147;51.952;6.146;2023-07-31T04:53:46;100743.53;;;17.17;100.00
31538;BME280;18147;51.952;6.146;2023-07-31T04:56:15;100743.97;;;17.22;100.00
31538;BME280;18147;51.952;6.146;2023-07-31T04:58:42;100740.69;;;17.28;100.00
31538;BME280;18147;51.952;6.146;2023-07-31T05:01:18;100745.25;;;17.28;100.00
31538;BME280;18147;51.952;6.146;2023-07-31T05:03:43;100734.88;;;17.33;100.00
31538;BME280;18147;51.952;6.146;2023-07-31T05:06:09;100735.88;;;17.22;100.00
31538;BME280;18147;51.952;6.146;2023-07-31T05:08:34;100743.97;;;17.22;100.00
31538;BME280;18147;51.952;6.146;2023-07-31T05:11:00;100743.09;;;17.22;100.00
31538;BME280;18147;51.952;6.146;2023-07-31T05:13:26;100736.72;;;17.23;100.00
31538;BME280;18147;51.952;6.146;2023-07-31T05:15:51;100734.47;;;17.28;100.00
31538;BME280;18147;51.952;6.146;2023-07-31T05:18:17;100726.06;;;17.12;100.00
31538;BME280;18147;51.952;6.146;2023-07-31T05:20:43;100734.88;;;17.33;100.00
31538;BME280;18147;51.952;6.146;2023-07-31T05:23:08;100731.44;;;17.31;100.00
31538;BME280;18147;51.952;6.146;2023-07-31T05:25:34;100720.66;;;17.41;100.00
31538;BME280;18147;51.952;6.146;2023-07-31T05:28:00;100722.50;;;17.50;100.00
31538;BME280;18147;51.952;6.146;2023-07-31T05:30:25;100719.53;;;17.53;100.00
31538;BME280;18147;51.952;6.146;2023-07-31T05:32:51;100714.13;;;17.53;100.00
31538;BME280;18147;51.952;6.146;2023-07-31T05:35:17;100712.31;;;17.44;100.00
31538;BME280;18147;51.952;6.146;2023-07-31T05:37:43;100708.88;;;17.42;100.00
31538;BME280;18147;51.952;6.146;2023-07-31T05:40:09;100698.56;;;17.37;100.00
31538;BME280;18147;51.952;6.146;2023-07-31T05:42:34;100710.03;;;17.29;100.00
31538;BME280;18147;51.952;6.146;2023-07-31T05:45:02;100714.84;;;17.35;100.00
31538;BME280;18147;51.952;6.146;2023-07-31T05:47:28;100723.69;;;17.28;100.00
31538;BME280;18147;51.952;6.146;2023-07-31T05:49:53;100719.84;;;17.21;100.00
31538;BME280;18147;51.952;6.146;2023-07-31T05:52:19;100719.72;;;17.13;100.00
31538;BME280;18147;51.952;6.146;2023-07-31T05:54:45;100722.53;;;17.11;100.00
31538;BME280;18147;51.952;6.146;2023-07-31T05:57:11;100716.59;;;17.07;100.00
31538;BME280;18147;51.952;6.146;2023-07-31T05:59:43;100722.25;;;17.04;100.00
31538;BME280;18147;51.952;6.146;2023-07-31T06:02:09;100727.78;;;16.93;100.00
31538;BME280;18147;51.952;6.146;2023-07-31T06:04:34;100733.31;;;16.92;100.00
31538;BME280;18147;51.952;6.146;2023-07-31T06:07:00;100737.00;;;16.91;100.00
31538;BME280;18147;51.952;6.146;2023-07-31T06:09:26;100738.41;;;16.95;100.00
31538;BME280;18147;51.952;6.146;2023-07-31T06:11:54;100737.41;;;16.96;100.00
31538;BME280;18147;51.952;6.146;2023-07-31T06:14:20;100738.41;;;16.85;100.00
31538;BME280;18147;51.952;6.146;2023-07-31T06:16:45;100743.38;;;16.90;100.00
31538;BME280;18147;51.952;6.146;2023-07-31T06:19:14;100735.31;;;16.99;100.00
31538;BME280;18147;51.952;6.146;2023-07-31T06:21:41;100737.72;;;16.93;100.00
31538;BME280;18147;51.952;6.146;2023-07-31T06:24:12;100727.50;;;17.06;100.00
31538;BME280;18147;51.952;6.146;2023-07-31T06:26:38;100727.22;;;17.19;100.00
31538;BME280;18147;51.952;6.146;2023-07-31T06:29:04;100720.56;;;17.23;100.00
31538;BME280;18147;51.952;6.146;2023-07-31T06:31:30;100728.06;;;17.29;100.00
31538;BME280;18147;51.952;6.146;2023-07-31T06:33:55;100721.41;;;17.33;100.00
31538;BME280;18147;51.952;6.146;2023-07-31T06:36:21;100723.78;;;17.36;100.00
31538;BME280;18147;51.952;6.146;2023-07-31T06:38:47;100723.69;;;17.18;100.00
31538;BME280;18147;51.952;6.146;2023-07-31T06:41:13;100721.09;;;17.17;100.00
31538;BME280;18147;51.952;6.146;2023-07-31T06:43:38;100724.22;;;17.22;100.00
31538;BME280;18147;51.952;6.146;2023-07-31T06:46:07;100709.63;;;17.34;100.00
31538;BME280;18147;51.952;6.146;2023-07-31T06:48:34;100711.03;;;17.28;100.00
31538;BME280;18147;51.952;6.146;2023-07-31T06:51:00;100716.69;;;17.35;100.00
31538;BME280;18147;51.952;6.146;2023-07-31T06:53:26;100703.94;;;17.37;100.00
31538;BME280;18147;51.952;6.146;2023-07-31T06:55:52;100701.09;;;17.48;100.00
31538;BME280;18147;51.952;6.146;2023-07-31T06:58:18;100696.22;;;17.52;100.00
31538;BME280;18147;51.952;6.146;2023-07-31T07:00:44;100695.97;;;17.35;100.00
31538;BME280;18147;51.952;6.146;2023-07-31T07:03:18;100694.88;;;17.38;100.00
31538;BME280;18147;51.952;6.146;2023-07-31T07:05:44;100693.59;;;17.42;100.00
31538;BME280;18147;51.952;6.146;2023-07-31T07:08:15;100680.38;;;17.49;100.00
31538;BME280;18147;51.952;6.146;2023-07-31T07:10:43;100683.06;;;17.49;100.00
31538;BME280;18147;51.952;6.146;2023-07-31T07:13:08;100686.44;;;17.51;100.00
31538;BME280;18147;51.952;6.146;2023-07-31T07:15:34;100682.03;;;17.59;100.00
31538;BME280;18147;51.952;6.146;2023-07-31T07:18:00;100687.34;;;17.32;100.00
31538;BME280;18147;51.952;6.146;2023-07-31T07:20:26;100693.13;;;17.47;100.00
31538;BME280;18147;51.952;6.146;2023-07-31T07:22:51;100693.69;;;17.50;100.00
31538;BME280;18147;51.952;6.146;2023-07-31T07:25:17;100685.31;;;17.53;100.00
31538;BME280;18147;51.952;6.146;2023-07-31T07:27:43;100679.75;;;17.65;100.00
31538;BME280;18147;51.952;6.146;2023-07-31T07:30:12;100681.25;;;17.86;100.00
31538;BME280;18147;51.952;6.146;2023-07-31T07:32:42;100669.19;;;17.81;100.00
31538;BME280;18147;51.952;6.146;2023-07-31T07:35:20;100667.44;;;17.99;100.00
31538;BME280;18147;51.952;6.146;2023-07-31T07:37:48;100666.50;;;17.81;100.00
31538;BME280;18147;51.952;6.146;2023-07-31T07:40:15;100666.53;;;18.08;100.00
31538;BME280;18147;51.952;6.146;2023-07-31T07:42:44;100661.88;;;18.01;100.00
31538;BME280;18147;51.952;6.146;2023-07-31T07:45:13;100658.56;;;18.07;100.00
31538;BME280;18147;51.952;6.146;2023-07-31T07:47:41;100658.13;;;18.11;100.00
31538;BME280;18147;51.952;6.146;2023-07-31T07:50:13;100650.63;;;18.05;100.00
31538;BME280;18147;51.952;6.146;2023-07-31T07:52:41;100659.22;;;17.91;100.00
31538;BME280;18147;51.952;6.146;2023-07-31T07:55:12;100655.47;;;17.74;100.00
31538;BME280;18147;51.952;6.146;2023-07-31T07:57:38;100659.25;;;17.81;100.00
31538;BME280;18147;51.952;6.146;2023-07-31T08:00:06;100660.56;;;17.77;100.00
31538;BME280;18147;51.952;6.146;2023-07-31T08:02:45;100659.53;;;17.88;100.00
31538;BME280;18147;51.952;6.146;2023-07-31T08:05:14;100659.38;;;17.90;100.00
31538;BME280;18147;51.952;6.146;2023-07-31T08:07:45;100651.13;;;17.91;100.00
31538;BME280;18147;51.952;6.146;2023-07-31T08:10:12;100647.94;;;17.78;100.00
31538;BME280;18147;51.952;6.146;2023-07-31T08:12:44;100651.97;;;17.92;100.00
31538;BME280;18147;51.952;6.146;2023-07-31T08:15:10;100636.72;;;17.82;100.00
31538;BME280;18147;51.952;6.146;2023-07-31T08:17:38;100636.94;;;18.17;100.00
31538;BME280;18147;51.952;6.146;2023-07-31T08:20:06;100633.16;;;18.09;100.00
31538;BME280;18147;51.952;6.146;2023-07-31T08:22:31;100641.63;;;18.15;100.00
31538;BME280;18147;51.952;6.146;2023-07-31T08:24:57;100638.31;;;18.21;100.00
31538;BME280;18147;51.952;6.146;2023-07-31T08:27:25;100631.69;;;18.15;100.00
31538;BME280;18147;51.952;6.146;2023-07-31T08:29:52;100634.75;;;18.02;100.00
31538;BME280;18147;51.952;6.146;2023-07-31T08:32:18;100642.03;;;18.20;100.00
31538;BME280;18147;51.952;6.146;2023-07-31T08:34:43;100631.72;;;18.33;100.00
31538;BME280;18147;51.952;6.146;2023-07-31T08:37:15;100625.78;;;18.29;100.00
31538;BME280;18147;51.952;6.146;2023-07-31T08:39:44;100627.41;;;18.40;100.00
31538;BME280;18147;51.952;6.146;2023-07-31T08:42:09;100624.50;;;18.69;100.00
31538;BME280;18147;51.952;6.146;2023-07-31T08:44:46;100615.84;;;18.48;100.00
31538;BME280;18147;51.952;6.146;2023-07-31T08:47:19;100626.84;;;18.36;100.00
31538;BME280;18147;51.952;6.146;2023-07-31T08:49:46;100627.56;;;18.56;100.00
31538;BME280;18147;51.952;6.146;2023-07-31T08:52:15;100615.31;;;18.80;100.00
31538;BME280;18147;51.952;6.146;2023-07-31T08:54:42;100602.56;;;18.90;100.00
31538;BME280;18147;51.952;6.146;2023-07-31T08:57:08;100609.28;;;18.86;100.00
31538;BME280;18147;51.952;6.146;2023-07-31T08:59:35;100601.72;;;18.89;100.00
31538;BME280;18147;51.952;6.146;2023-07-31T09:02:05;100606.50;;;18.96;100.00
31538;BME280;18147;51.952;6.146;2023-07-31T09:04:33;100606.03;;;19.00;100.00
31538;BME280;18147;51.952;6.146;2023-07-31T09:07:03;100611.81;;;18.87;100.00
31538;BME280;18147;51.952;6.146;2023-07-31T09:09:32;100605.13;;;19.18;100.00
31538;BME280;18147;51.952;6.146;2023-07-31T09:11:58;100612.25;;;19.19;100.00
31538;BME280;18147;51.952;6.146;2023-07-31T09:14:26;100601.09;;;19.22;100.00
31538;BME280;18147;51.952;6.146;2023-07-31T09:17:00;100603.22;;;19.10;100.00
31538;BME280;18147;51.952;6.146;2023-07-31T09:21:52;100594.06;;;19.03;100.00
31538;BME280;18147;51.952;6.146;2023-07-31T09:24:28;100596.25;;;19.07;100.00
31538;BME280;18147;51.952;6.146;2023-07-31T09:26:56;100593.81;;;18.96;100.00
31538;BME280;18147;51.952;6.146;2023-07-31T09:29:22;100600.59;;;18.74;100.00
31538;BME280;18147;51.952;6.146;2023-07-31T09:31:50;100601.94;;;18.60;100.00
31538;BME280;18147;51.952;6.146;2023-07-31T09:34:16;100610.44;;;18.48;100.00
31538;BME280;18147;51.952;6.146;2023-07-31T09:36:46;100607.28;;;18.34;100.00
31538;BME280;18147;51.952;6.146;2023-07-31T09:39:14;100605.94;;;18.56;100.00
31538;BME280;18147;51.952;6.146;2023-07-31T09:41:47;100601.94;;;18.60;100.00
31538;BME280;18147;51.952;6.146;2023-07-31T09:44:15;100594.22;;;18.66;100.00
31538;BME280;18147;51.952;6.146;2023-07-31T09:46:46;100590.78;;;18.73;100.00
31538;BME280;18147;51.952;6.146;2023-07-31T09:49:16;100585.69;;;18.88;100.00
31538;BME280;18147;51.952;6.146;2023-07-31T09:51:44;100581.91;;;19.07;100.00
31538;BME280;18147;51.952;6.146;2023-07-31T09:54:14;100577.09;;;18.93;100.00
31538;BME280;18147;51.952;6.146;2023-07-31T09:56:48;100568.75;;;18.86;100.00
31538;BME280;18147;51.952;6.146;2023-07-31T09:59:18;100580.28;;;19.14;100.00
31538;BME280;18147;51.952;6.146;2023-07-31T10:01:46;100572.00;;;18.89;100.00
31538;BME280;18147;51.952;6.146;2023-07-31T10:04:18;100574.78;;;18.98;100.00
31538;BME280;18147;51.952;6.146;2023-07-31T10:06:54;100566.75;;;19.14;100.00
31538;BME280;18147;51.952;6.146;2023-07-31T10:09:21;100570.13;;;19.16;100.00
31538;BME280;18147;51.952;6.146;2023-07-31T10:11:53;100556.75;;;19.40;100.00
31538;BME280;18147;51.952;6.146;2023-07-31T10:14:21;100573.66;;;19.42;100.00
31538;BME280;18147;51.952;6.146;2023-07-31T10:16:49;100564.19;;;19.12;100.00
31538;BME280;18147;51.952;6.146;2023-07-31T10:19:17;100560.69;;;19.46;100.00
31538;BME280;18147;51.952;6.146;2023-07-31T10:21:43;100567.47;;;19.50;100.00
31538;BME280;18147;51.952;6.146;2023-07-31T10:24:09;100551.84;;;19.70;100.00
31538;BME280;18147;51.952;6.146;2023-07-31T10:26:38;100543.78;;;19.78;100.00
31538;BME280;18147;51.952;6.146;2023-07-31T10:29:15;100544.00;;;19.93;100.00
31538;BME280;18147;51.952;6.146;2023-07-31T10:31:46;100542.28;;;19.92;100.00
31538;BME280;18147;51.952;6.146;2023-07-31T10:34:13;100544.84;;;20.02;100.00
31538;BME280;18147;51.952;6.146;2023-07-31T10:36:45;100542.81;;;20.12;100.00
31538;BME280;18147;51.952;6.146;2023-07-31T10:39:33;100537.59;;;20.27;100.00
31538;BME280;18147;51.952;6.146;2023-07-31T10:42:13;100547.75;;;20.33;100.00
31538;BME280;18147;51.952;6.146;2023-07-31T10:44:46;100533.59;;;20.55;100.00
31538;BME280;18147;51.952;6.146;2023-07-31T10:47:15;100527.47;;;20.78;100.00
31538;BME280;18147;51.952;6.146;2023-07-31T10:49:44;100534.44;;;20.64;100.00
31538;BME280;18147;51.952;6.146;2023-07-31T10:52:16;100524.44;;;20.56;100.00
31538;BME280;18147;51.952;6.146;2023-07-31T10:54:45;100522.56;;;20.81;100.00
31538;BME280;18147;51.952;6.146;2023-07-31T10:57:23;100516.25;;;21.05;100.00
31538;BME280;18147;51.952;6.146;2023-07-31T10:59:50;100510.06;;;21.44;100.00
31538;BME280;18147;51.952;6.146;2023-07-31T11:02:26;100508.75;;;21.32;100.00
31538;BME280;18147;51.952;6.146;2023-07-31T11:05:09;100505.16;;;21.39;100.00
31538;BME280;18147;51.952;6.146;2023-07-31T11:07:48;100501.63;;;21.39;100.00
31538;BME280;18147;51.952;6.146;2023-07-31T11:10:18;100508.88;;;21.38;100.00
31538;BME280;18147;51.952;6.146;2023-07-31T11:12:47;100498.34;;;21.43;100.00
31538;BME280;18147;51.952;6.146;2023-07-31T11:15:13;100493.28;;;21.40;100.00
31538;BME280;18147;51.952;6.146;2023-07-31T11:17:42;100491.28;;;21.34;100.00
31538;BME280;18147;51.952;6.146;2023-07-31T11:20:17;100500.50;;;21.09;100.00
31538;BME280;18147;51.952;6.146;2023-07-31T11:22:46;100498.78;;;21.08;100.00
31538;BME280;18147;51.952;6.146;2023-07-31T11:25:16;100502.91;;;20.95;100.00
31538;BME280;18147;51.952;6.146;2023-07-31T11:27:44;100512.56;;;20.90;100.00
31538;BME280;18147;51.952;6.146;2023-07-31T11:30:18;100508.50;;;20.86;100.00
31538;BME280;18147;51.952;6.146;2023-07-31T11:32:44;100511.03;;;20.87;100.00
31538;BME280;18147;51.952;6.146;2023-07-31T11:35:14;100518.03;;;20.49;100.00
31538;BME280;18147;51.952;6.146;2023-07-31T11:37:46;100519.66;;;20.17;100.00
31538;BME280;18147;51.952;6.146;2023-07-31T11:40:17;100516.63;;;20.29;100.00
31538;BME280;18147;51.952;6.146;2023-07-31T11:42:46;100513.03;;;20.12;100.00
31538;BME280;18147;51.952;6.146;2023-07-31T11:45:13;100523.53;;;20.07;100.00
31538;BME280;18147;51.952;6.146;2023-07-31T11:47:38;100528.38;;;19.87;100.00
31538;BME280;18147;51.952;6.146;2023-07-31T11:50:13;100517.78;;;20.10;100.00
31538;BME280;18147;51.952;6.146;2023-07-31T11:52:44;100516.97;;;20.34;100.00
31538;BME280;18147;51.952;6.146;2023-07-31T11:55:15;100512.94;;;20.54;100.00
31538;BME280;18147;51.952;6.146;2023-07-31T11:57:43;100518.53;;;20.69;100.00
31538;BME280;18147;51.952;6.146;2023-07-31T12:00:12;100513.88;;;21.02;100.00
31538;BME280;18147;51.952;6.146;2023-07-31T12:02:46;100495.84;;;21.26;100.00
31538;BME280;18147;51.952;6.146;2023-07-31T12:05:13;100498.31;;;20.96;100.00
31538;BME280;18147;51.952;6.146;2023-07-31T12:07:46;100506.84;;;20.60;100.00
31538;BME280;18147;51.952;6.146;2023-07-31T12:10:22;100504.94;;;20.85;100.00
31538;BME280;18147;51.952;6.146;2023-07-31T12:12:58;100503.66;;;21.20;100.00
31538;BME280;18147;51.952;6.146;2023-07-31T12:15:44;100493.31;;;21.32;100.00
31538;BME280;18147;51.952;6.146;2023-07-31T12:20:45;100490.06;;;21.45;100.00
31538;BME280;18147;51.952;6.146;2023-07-31T12:23:18;100493.88;;;21.11;100.00
31538;BME280;18147;51.952;6.146;2023-07-31T12:25:47;100490.44;;;21.26;100.00
31538;BME280;18147;51.952;6.146;2023-07-31T12:28:25;100491.59;;;21.39;100.00
31538;BME280;18147;51.952;6.146;2023-07-31T12:30:51;100494.38;;;21.15;100.00
31538;BME280;18147;51.952;6.146;2023-07-31T12:33:18;100495.81;;;20.70;100.00
31538;BME280;18147;51.952;6.146;2023-07-31T12:35:47;100489.31;;;21.04;100.00
31538;BME280;18147;51.952;6.146;2023-07-31T12:38:13;100502.31;;;21.16;100.00
31538;BME280;18147;51.952;6.146;2023-07-31T12:40:45;100501.16;;;21.03;100.00
31538;BME280;18147;51.952;6.146;2023-07-31T12:43:13;100496.25;;;21.06;100.00
31538;BME280;18147;51.952;6.146;2023-07-31T12:45:39;100497.63;;;21.02;100.00
31538;BME280;18147;51.952;6.146;2023-07-31T12:48:13;100484.75;;;20.88;100.00
31538;BME280;18147;51.952;6.146;2023-07-31T12:50:39;100491.28;;;20.54;100.00
31538;BME280;18147;51.952;6.146;2023-07-31T12:53:16;100500.38;;;20.29;100.00
31538;BME280;18147;51.952;6.146;2023-07-31T12:55:44;100490.72;;;20.42;100.00
31538;BME280;18147;51.952;6.146;2023-07-31T12:58:13;100485.69;;;20.56;100.00
31538;BME280;18147;51.952;6.146;2023-07-31T13:00:38;100478.72;;;20.45;100.00